createdAt,value
2019-06-26T00:00:38.008Z,22.80
2019-06-26T00:03:06.692Z,22.80
2019-06-26T00:05:35.709Z,22.70
2019-06-26T00:08:04.801Z,22.80
2019-06-26T00:10:33.572Z,22.70
2019-06-26T00:13:02.246Z,22.70
2019-06-26T00:15:31.269Z,22.70
2019-06-26T00:17:59.949Z,22.70
2019-06-26T00:20:28.948Z,22.60
2019-06-26T00:22:57.634Z,22.70
2019-06-26T00:25:26.450Z,22.70
2019-06-26T00:27:55.411Z,22.70
2019-06-26T00:30:24.157Z,22.70
2019-06-26T00:32:52.826Z,22.70
2019-06-26T00:35:21.774Z,22.70
2019-06-26T00:37:50.453Z,22.70
2019-06-26T00:40:19.242Z,22.70
2019-06-26T00:42:48.009Z,22.60
2019-06-26T00:45:16.729Z,22.60
2019-06-26T00:47:45.404Z,22.60
2019-06-26T00:50:15.853Z,22.60
2019-06-26T00:52:44.569Z,22.60
2019-06-26T00:55:13.617Z,22.50
2019-06-26T00:57:42.611Z,22.50
2019-06-26T01:00:11.364Z,22.50
2019-06-26T01:02:40.698Z,22.50
2019-06-26T01:05:10.421Z,22.50
2019-06-26T01:07:39.391Z,22.50
2019-06-26T01:10:08.237Z,22.50
2019-06-26T01:12:36.931Z,22.50
2019-06-26T01:15:05.601Z,22.50
2019-06-26T01:17:34.740Z,22.40
2019-06-26T01:20:03.623Z,22.40
2019-06-26T01:22:33.768Z,22.40
2019-06-26T01:25:02.436Z,22.40
2019-06-26T01:27:31.316Z,22.40
2019-06-26T01:30:00.434Z,22.40
2019-06-26T01:32:29.130Z,22.40
2019-06-26T01:34:57.807Z,22.40
2019-06-26T01:37:26.496Z,22.40
2019-06-26T01:39:55.245Z,22.30
2019-06-26T01:42:23.940Z,22.30
2019-06-26T01:44:52.953Z,22.40
2019-06-26T01:47:21.657Z,22.40
2019-06-26T01:49:50.643Z,22.30
2019-06-26T01:52:19.716Z,22.40
2019-06-26T01:54:48.400Z,22.30
2019-06-26T01:57:17.406Z,22.30
2019-06-26T01:59:46.527Z,22.30
2019-06-26T02:02:15.205Z,22.30
2019-06-26T02:04:43.884Z,22.30
2019-06-26T02:07:12.866Z,22.30
2019-06-26T02:09:41.855Z,22.20
2019-06-26T02:12:10.839Z,22.20
2019-06-26T02:14:39.515Z,22.30
2019-06-26T02:17:09.261Z,22.20
2019-06-26T02:19:38.233Z,22.20
2019-06-26T02:22:06.908Z,22.20
2019-06-26T02:24:35.580Z,22.20
2019-06-26T02:27:04.601Z,22.10
2019-06-26T02:29:33.281Z,22.20
2019-06-26T02:32:02.326Z,22.10
2019-06-26T02:34:31.046Z,22.20
2019-06-26T02:37:00.062Z,22.10
2019-06-26T02:39:29.073Z,22.20
2019-06-26T02:41:57.752Z,22.10
2019-06-26T02:44:26.737Z,22.10
2019-06-26T02:47:13.480Z,22.10
2019-06-26T02:49:25.814Z,22.10
2019-06-26T02:51:54.517Z,22.10
2019-06-26T02:54:23.954Z,22.10
2019-06-26T02:56:52.655Z,22.10
2019-06-26T02:59:21.610Z,22.10
2019-06-26T03:01:51.014Z,22.10
2019-06-26T03:04:20.004Z,22.00
2019-06-26T03:06:48.997Z,22.00
2019-06-26T03:09:17.665Z,22.00
2019-06-26T03:11:46.417Z,22.00
2019-06-26T03:14:15.770Z,22.00
2019-06-26T03:16:44.758Z,22.00
2019-06-26T03:19:13.444Z,22.00
2019-06-26T03:21:42.306Z,22.00
2019-06-26T03:24:12.361Z,22.00
2019-06-26T03:26:41.066Z,21.90
2019-06-26T03:29:10.135Z,21.90
2019-06-26T03:31:39.891Z,21.90
2019-06-26T03:34:08.562Z,21.90
2019-06-26T03:36:37.529Z,21.90
2019-06-26T03:39:07.338Z,21.90
2019-06-26T03:41:36.013Z,21.90
2019-06-26T03:44:05.009Z,21.90
2019-06-26T03:46:33.885Z,21.90
2019-06-26T03:49:02.557Z,21.90
2019-06-26T03:51:31.234Z,21.80
2019-06-26T03:53:59.980Z,21.80
2019-06-26T03:56:28.656Z,21.80
2019-06-26T03:58:58.049Z,21.80
2019-06-26T04:01:27.865Z,21.80
2019-06-26T04:03:57.606Z,21.80
2019-06-26T04:06:26.761Z,21.80
2019-06-26T04:08:55.444Z,21.80
2019-06-26T04:11:24.442Z,21.80
2019-06-26T04:13:53.441Z,21.80
2019-06-26T04:16:22.430Z,21.80
2019-06-26T04:18:51.103Z,21.80
2019-06-26T04:21:20.106Z,21.90
2019-06-26T04:23:48.857Z,21.90
2019-06-26T04:26:17.886Z,21.80
2019-06-26T04:28:46.593Z,21.80
2019-06-26T04:31:15.657Z,21.80
2019-06-26T04:33:44.665Z,21.90
2019-06-26T04:36:13.336Z,21.90
2019-06-26T04:38:42.046Z,21.80
2019-06-26T04:41:10.832Z,21.90
2019-06-26T04:43:39.968Z,21.90
2019-06-26T04:46:08.936Z,21.90
2019-06-26T04:48:37.636Z,21.90
2019-06-26T04:51:06.313Z,21.90
2019-06-26T04:53:35.369Z,21.90
2019-06-26T04:56:04.373Z,21.90
2019-06-26T04:58:33.168Z,21.90
2019-06-26T05:01:01.846Z,22.00
2019-06-26T05:03:30.833Z,21.90
2019-06-26T05:05:59.525Z,21.90
2019-06-26T05:08:28.276Z,21.90
2019-06-26T05:10:58.242Z,21.90
2019-06-26T05:13:27.214Z,21.90
2019-06-26T05:15:55.961Z,22.00
2019-06-26T05:18:25.649Z,22.00
2019-06-26T05:20:54.381Z,22.00
2019-06-26T05:23:23.080Z,22.00
2019-06-26T05:25:53.140Z,22.00
2019-06-26T05:28:21.836Z,22.00
2019-06-26T05:30:50.837Z,22.00
2019-06-26T05:33:19.539Z,22.00
2019-06-26T05:35:48.595Z,22.00
2019-06-26T05:38:17.312Z,22.00
2019-06-26T05:40:46.065Z,22.10
2019-06-26T05:43:15.069Z,22.10
2019-06-26T05:45:44.090Z,22.10
2019-06-26T05:48:12.792Z,22.10
2019-06-26T05:50:41.896Z,22.10
2019-06-26T05:53:10.894Z,22.20
2019-06-26T05:55:39.885Z,22.20
2019-06-26T05:58:08.581Z,22.20
2019-06-26T06:00:37.564Z,22.20
2019-06-26T06:03:06.312Z,22.20
2019-06-26T06:05:35.353Z,22.30
2019-06-26T06:08:04.153Z,22.30
2019-06-26T06:10:33.431Z,22.30
2019-06-26T06:13:02.128Z,22.30
2019-06-26T06:15:31.113Z,22.30
2019-06-26T06:17:59.799Z,22.30
2019-06-26T06:20:35.750Z,22.30
2019-06-26T06:23:04.448Z,22.40
2019-06-26T06:25:34.201Z,22.40
2019-06-26T06:28:02.898Z,22.40
2019-06-26T06:30:31.946Z,22.40
2019-06-26T06:33:00.914Z,22.40
2019-06-26T06:35:29.596Z,22.40
2019-06-26T06:37:58.363Z,22.40
2019-06-26T06:40:27.381Z,22.40
2019-06-26T06:42:56.468Z,22.40
2019-06-26T06:45:25.226Z,22.50
2019-06-26T06:47:55.277Z,22.50
2019-06-26T06:50:23.954Z,22.50
2019-06-26T06:52:53.084Z,22.50
2019-06-26T06:55:21.932Z,22.50
2019-06-26T06:57:50.950Z,22.50
2019-06-26T07:00:19.651Z,22.50
2019-06-26T07:02:48.401Z,22.60
2019-06-26T07:05:17.081Z,22.60
2019-06-26T07:07:45.838Z,22.60
2019-06-26T07:10:14.888Z,22.60
2019-06-26T07:12:43.557Z,22.60
2019-06-26T07:15:12.567Z,22.60
2019-06-26T07:17:41.270Z,22.70
2019-06-26T07:20:09.952Z,22.70
2019-06-26T07:22:39.026Z,22.80
2019-06-26T07:25:07.801Z,22.80
2019-06-26T07:27:36.920Z,22.80
2019-06-26T07:30:05.648Z,22.80
2019-06-26T07:32:34.424Z,22.80
2019-06-26T07:35:03.636Z,22.80
2019-06-26T07:37:32.348Z,22.80
2019-06-26T07:40:02.355Z,22.90
2019-06-26T07:42:31.436Z,22.90
2019-06-26T07:45:00.281Z,22.90
2019-06-26T07:47:42.432Z,22.90
2019-06-26T07:49:59.386Z,22.90
2019-06-26T07:52:28.502Z,22.90
2019-06-26T07:54:57.180Z,22.90
2019-06-26T07:57:26.157Z,22.90
2019-06-26T07:59:54.934Z,22.90
2019-06-26T08:02:23.669Z,22.90
2019-06-26T08:04:52.725Z,22.90
2019-06-26T08:07:21.401Z,22.90
2019-06-26T08:09:51.249Z,22.90
2019-06-26T08:12:19.926Z,22.90
2019-06-26T08:14:48.619Z,23.00
2019-06-26T08:17:17.762Z,23.00
2019-06-26T08:19:46.455Z,23.00
2019-06-26T08:22:15.548Z,23.00
2019-06-26T08:24:44.558Z,23.00
2019-06-26T08:27:13.701Z,23.00
2019-06-26T08:29:42.420Z,23.00
2019-06-26T08:32:36.842Z,23.00
2019-06-26T08:35:06.034Z,23.00
2019-06-26T08:37:34.712Z,23.00
2019-06-26T08:40:05.470Z,23.00
2019-06-26T08:42:34.444Z,23.00
2019-06-26T08:45:04.842Z,23.10
2019-06-26T08:47:33.516Z,23.10
2019-06-26T08:50:02.695Z,23.20
2019-06-26T08:52:31.641Z,23.30
2019-06-26T08:55:04.188Z,23.30
2019-06-26T08:57:32.892Z,23.40
2019-06-26T09:00:02.720Z,23.40
2019-06-26T09:02:31.820Z,23.40
2019-06-26T09:05:02.527Z,23.40
2019-06-26T09:07:31.432Z,23.40
2019-06-26T09:10:00.549Z,23.40
2019-06-26T09:12:29.518Z,23.40
2019-06-26T09:14:58.534Z,23.40
2019-06-26T09:17:27.291Z,23.50
2019-06-26T09:19:56.392Z,23.50
2019-06-26T09:22:25.075Z,23.50
2019-06-26T09:24:53.775Z,23.50
2019-06-26T09:27:22.824Z,23.50
2019-06-26T09:29:51.580Z,23.60
2019-06-26T09:32:20.260Z,23.60
2019-06-26T09:34:49.454Z,23.70
2019-06-26T09:37:18.530Z,23.70
2019-06-26T09:39:47.241Z,23.70
2019-06-26T09:42:19.345Z,23.70
2019-06-26T09:44:46.631Z,23.70
2019-06-26T09:47:15.930Z,23.70
2019-06-26T09:49:45.038Z,23.70
2019-06-26T09:52:13.767Z,23.70
2019-06-26T09:54:42.436Z,23.70
2019-06-26T09:57:11.188Z,23.70
2019-06-26T09:59:39.862Z,23.70
2019-06-26T10:02:08.613Z,23.80
2019-06-26T10:04:37.657Z,23.80
2019-06-26T10:07:06.408Z,23.80
2019-06-26T10:09:35.078Z,23.80
2019-06-26T10:12:04.116Z,23.90
2019-06-26T10:14:46.759Z,23.90
2019-06-26T10:17:03.265Z,23.90
2019-06-26T10:19:32.225Z,23.90
2019-06-26T10:22:01.313Z,23.90
2019-06-26T10:24:29.993Z,23.90
2019-06-26T10:26:59.057Z,23.90
2019-06-26T10:29:27.821Z,23.90
2019-06-26T10:31:56.886Z,23.90
2019-06-26T10:34:25.828Z,23.90
2019-06-26T10:36:55.537Z,23.90
2019-06-26T10:39:24.569Z,24.00
2019-06-26T10:41:55.014Z,24.00
2019-06-26T10:44:23.903Z,24.00
2019-06-26T10:46:52.981Z,24.00
2019-06-26T10:49:27.042Z,24.00
2019-06-26T10:51:52.103Z,24.00
2019-06-26T10:54:20.790Z,24.00
2019-06-26T10:56:49.743Z,24.00
2019-06-26T10:59:18.825Z,24.10
2019-06-26T11:01:47.645Z,24.20
2019-06-26T11:04:16.369Z,24.30
2019-06-26T11:06:45.125Z,24.30
2019-06-26T11:09:13.897Z,24.30
2019-06-26T11:11:42.997Z,24.30
2019-06-26T11:14:11.746Z,24.30
2019-06-26T11:16:40.823Z,24.30
2019-06-26T11:19:09.657Z,24.30
2019-06-26T11:21:38.689Z,24.20
2019-06-26T11:24:07.776Z,24.10
2019-06-26T11:26:36.529Z,24.20
2019-06-26T11:29:05.208Z,24.10
2019-06-26T11:31:34.237Z,24.20
2019-06-26T11:34:02.945Z,24.20
2019-06-26T11:36:31.992Z,24.20
2019-06-26T11:39:00.728Z,24.20
2019-06-26T11:41:31.029Z,24.20
2019-06-26T11:43:59.714Z,24.30
2019-06-26T11:46:28.726Z,24.30
2019-06-26T11:48:57.495Z,24.30
2019-06-26T11:51:26.219Z,24.30
2019-06-26T11:53:54.900Z,24.30
2019-06-26T11:56:23.723Z,24.30
2019-06-26T11:58:52.766Z,24.30
2019-06-26T12:01:21.473Z,24.30
2019-06-26T12:03:50.155Z,24.30
2019-06-26T12:06:19.423Z,24.30
2019-06-26T12:08:48.208Z,24.30
2019-06-26T12:11:16.972Z,24.40
2019-06-26T12:13:46.021Z,24.40
2019-06-26T12:16:14.780Z,24.40
2019-06-26T12:18:43.870Z,24.40
2019-06-26T12:21:12.622Z,24.40
2019-06-26T12:23:41.380Z,24.40
2019-06-26T12:26:11.333Z,24.40
2019-06-26T12:28:40.083Z,24.40
2019-06-26T12:31:08.961Z,24.40
2019-06-26T12:33:37.929Z,24.40
2019-06-26T12:36:06.631Z,24.40
2019-06-26T12:38:35.321Z,24.50
2019-06-26T12:41:04.499Z,24.50
2019-06-26T12:43:33.201Z,24.50
2019-06-26T12:46:02.379Z,24.40
2019-06-26T12:48:31.135Z,24.40
2019-06-26T12:51:00.161Z,24.30
2019-06-26T12:53:29.150Z,24.30
2019-06-26T12:55:57.907Z,24.20
2019-06-26T12:58:26.609Z,24.30
2019-06-26T13:00:55.621Z,24.30
2019-06-26T13:03:24.408Z,24.30
2019-06-26T13:05:53.109Z,24.30
2019-06-26T13:08:21.794Z,24.30
2019-06-26T13:10:50.765Z,24.40
2019-06-26T13:13:20.141Z,24.40
2019-06-26T13:15:51.114Z,24.30
2019-06-26T13:18:19.268Z,24.40
2019-06-26T13:20:52.702Z,24.40
2019-06-26T13:23:18.811Z,24.40
2019-06-26T13:25:48.709Z,24.40
2019-06-26T13:28:17.406Z,24.40
2019-06-26T13:30:53.072Z,24.50
2019-06-26T13:33:19.841Z,24.50
2019-06-26T13:35:48.621Z,24.50
2019-06-26T13:38:17.363Z,24.50
2019-06-26T13:40:46.544Z,24.50
2019-06-26T13:43:15.429Z,24.60
2019-06-26T13:45:44.465Z,24.60
2019-06-26T13:48:13.209Z,24.60
2019-06-26T13:50:42.230Z,24.60
2019-06-26T13:53:10.916Z,24.70
2019-06-26T13:55:40.181Z,24.70
2019-06-26T13:58:08.920Z,24.70
2019-06-26T14:00:37.717Z,24.70
2019-06-26T14:03:06.474Z,24.80
2019-06-26T14:05:35.233Z,24.80
2019-06-26T14:08:03.914Z,24.80
2019-06-26T14:10:33.164Z,24.80
2019-06-26T14:13:02.657Z,24.80
2019-06-26T14:15:31.346Z,24.80
2019-06-26T14:18:00.046Z,24.80
2019-06-26T14:20:29.238Z,24.80
2019-06-26T14:22:58.629Z,24.80
2019-06-26T14:25:27.331Z,24.90
2019-06-26T14:27:56.024Z,24.90
2019-06-26T14:30:27.869Z,24.90
2019-06-26T14:32:55.125Z,24.80
2019-06-26T14:35:24.206Z,24.90
2019-06-26T14:37:52.959Z,24.90
2019-06-26T14:40:21.984Z,24.90
2019-06-26T14:42:50.978Z,24.90
2019-06-26T14:45:19.975Z,24.90
2019-06-26T14:47:48.663Z,25.00
2019-06-26T14:50:17.929Z,25.00
2019-06-26T14:52:46.686Z,25.00
2019-06-26T14:55:15.516Z,25.00
2019-06-26T14:57:44.222Z,25.00
2019-06-26T15:00:13.009Z,25.00
2019-06-26T15:02:41.761Z,25.00
2019-06-26T15:05:10.791Z,25.00
2019-06-26T15:07:39.616Z,25.00
2019-06-26T15:10:08.302Z,25.00
2019-06-26T15:12:37.096Z,25.00
2019-06-26T15:15:05.816Z,25.00
2019-06-26T15:17:34.591Z,25.00
2019-06-26T15:20:03.262Z,25.00
2019-06-26T15:22:32.987Z,25.00
2019-06-26T15:25:02.026Z,25.00
2019-06-26T15:27:30.741Z,25.00
2019-06-26T15:29:59.416Z,25.00
2019-06-26T15:32:28.600Z,24.90
2019-06-26T15:34:57.294Z,24.90
2019-06-26T15:37:25.970Z,24.90
2019-06-26T15:39:54.652Z,24.90
2019-06-26T15:42:23.338Z,24.80
2019-06-26T15:44:53.346Z,24.80
2019-06-26T15:47:22.068Z,24.80
2019-06-26T15:49:50.825Z,24.80
2019-06-26T15:52:19.796Z,24.80
2019-06-26T15:54:48.797Z,24.80
2019-06-26T15:57:17.568Z,24.80
2019-06-26T15:59:46.254Z,24.80
2019-06-26T16:02:15.010Z,24.80
2019-06-26T16:04:44.045Z,24.80
2019-06-26T16:07:13.144Z,24.80
2019-06-26T16:09:41.840Z,24.80
2019-06-26T16:12:10.557Z,24.80
2019-06-26T16:14:39.228Z,24.80
2019-06-26T16:17:14.364Z,24.90
2019-06-26T16:19:43.133Z,24.90
2019-06-26T16:22:11.914Z,25.00
2019-06-26T16:24:40.650Z,24.90
2019-06-26T16:27:10.440Z,25.00
2019-06-26T16:29:39.117Z,24.90
2019-06-26T16:32:08.190Z,25.00
2019-06-26T16:34:37.194Z,25.00
2019-06-26T16:37:06.692Z,25.00
2019-06-26T16:39:35.782Z,25.00
2019-06-26T16:42:04.553Z,25.00
2019-06-26T16:44:33.669Z,25.00
2019-06-26T16:47:02.425Z,25.00
2019-06-26T16:49:31.445Z,25.00
2019-06-26T16:52:00.168Z,25.00
2019-06-26T16:54:28.953Z,25.00
2019-06-26T16:56:57.721Z,25.00
2019-06-26T16:59:26.484Z,25.00
2019-06-26T17:01:55.485Z,25.00
2019-06-26T17:04:24.478Z,25.00
2019-06-26T17:06:53.469Z,25.00
2019-06-26T17:09:22.469Z,24.90
2019-06-26T17:11:51.243Z,24.90
2019-06-26T17:14:19.933Z,24.90
2019-06-26T17:16:48.931Z,24.90
2019-06-26T17:19:17.679Z,24.90
2019-06-26T17:21:46.441Z,24.90
2019-06-26T17:24:15.184Z,24.90
2019-06-26T17:26:44.189Z,24.90
2019-06-26T17:29:12.978Z,24.90
2019-06-26T17:31:41.973Z,24.90
2019-06-26T17:34:11.717Z,25.00
2019-06-26T17:36:40.665Z,25.00
2019-06-26T17:39:09.785Z,25.00
2019-06-26T17:41:38.513Z,24.90
2019-06-26T17:44:07.214Z,24.90
2019-06-26T17:46:36.221Z,25.00
2019-06-26T17:49:04.981Z,25.00
2019-06-26T17:51:33.914Z,25.00
2019-06-26T17:54:02.701Z,25.00
2019-06-26T17:56:31.383Z,25.00
2019-06-26T17:59:00.781Z,25.00
2019-06-26T18:01:30.286Z,25.00
2019-06-26T18:03:58.984Z,25.00
2019-06-26T18:06:27.750Z,25.00
2019-06-26T18:08:56.457Z,25.00
2019-06-26T18:11:25.546Z,24.90
2019-06-26T18:13:54.653Z,24.90
2019-06-26T18:16:23.341Z,24.80
2019-06-26T18:18:52.315Z,24.80
2019-06-26T18:21:21.338Z,24.80
2019-06-26T18:23:50.411Z,24.80
2019-06-26T18:26:19.084Z,24.80
2019-06-26T18:28:47.840Z,24.70
2019-06-26T18:31:16.516Z,24.70
2019-06-26T18:33:45.560Z,24.70
2019-06-26T18:36:14.308Z,24.70
2019-06-26T18:38:43.135Z,24.70
2019-06-26T18:41:11.809Z,24.70
2019-06-26T18:43:40.512Z,24.70
2019-06-26T18:46:10.291Z,24.70
2019-06-26T18:48:38.976Z,24.70
2019-06-26T18:51:07.665Z,24.70
2019-06-26T18:53:36.500Z,24.70
2019-06-26T18:56:05.471Z,24.70
2019-06-26T18:58:34.561Z,24.60
2019-06-26T19:01:03.260Z,24.60
2019-06-26T19:03:32.341Z,24.60
2019-06-26T19:06:01.815Z,24.60
2019-06-26T19:08:30.736Z,24.60
2019-06-26T19:10:59.729Z,24.60
2019-06-26T19:13:28.407Z,24.60
2019-06-26T19:15:57.405Z,24.60
2019-06-26T19:18:26.109Z,24.60
2019-06-26T19:20:55.081Z,24.60
2019-06-26T19:23:23.780Z,24.60
2019-06-26T19:25:52.762Z,24.60
2019-06-26T19:28:23.198Z,24.60
2019-06-26T19:30:52.394Z,24.60
2019-06-26T19:33:21.156Z,24.50
2019-06-26T19:35:50.173Z,24.50
2019-06-26T19:38:18.929Z,24.50
2019-06-26T19:40:47.619Z,24.50
2019-06-26T19:43:16.657Z,24.50
2019-06-26T19:45:45.628Z,24.50
2019-06-26T19:48:15.033Z,24.50
2019-06-26T19:50:44.127Z,24.50
2019-06-26T19:53:12.805Z,24.50
2019-06-26T19:55:41.500Z,24.50
2019-06-26T19:58:10.485Z,24.50
2019-06-26T20:00:39.271Z,24.50
2019-06-26T20:03:07.969Z,24.50
2019-06-26T20:05:37.025Z,24.50
2019-06-26T20:08:05.706Z,24.50
2019-06-26T20:10:34.737Z,24.50
2019-06-26T20:13:03.498Z,24.50
2019-06-26T20:15:32.205Z,24.50
2019-06-26T20:18:04.138Z,24.40
2019-06-26T20:20:31.405Z,24.50
2019-06-26T20:23:00.527Z,24.50
2019-06-26T20:25:29.295Z,24.40
2019-06-26T20:27:58.007Z,24.40
2019-06-26T20:30:28.626Z,24.40
2019-06-26T20:32:57.619Z,24.40
2019-06-26T20:35:26.323Z,24.40
2019-06-26T20:37:55.294Z,24.40
2019-06-26T20:40:24.285Z,24.40
2019-06-26T20:42:52.956Z,24.40
2019-06-26T20:45:21.974Z,24.40
2019-06-26T20:47:51.503Z,24.40
2019-06-26T20:50:20.343Z,24.40
2019-06-26T20:52:49.182Z,24.40
2019-06-26T20:55:18.373Z,24.40
2019-06-26T20:57:47.064Z,24.40
2019-06-26T21:00:16.096Z,24.40
2019-06-26T21:02:44.857Z,24.40
2019-06-26T21:05:13.806Z,24.40
2019-06-26T21:07:42.481Z,24.40
2019-06-26T21:10:11.590Z,24.40
2019-06-26T21:12:40.363Z,24.40
2019-06-26T21:15:09.140Z,24.40
2019-06-26T21:17:38.177Z,24.40
2019-06-26T21:20:07.017Z,24.40
2019-06-26T21:22:35.692Z,24.40
2019-06-26T21:25:17.687Z,24.40
2019-06-26T21:27:35.862Z,24.40
2019-06-26T21:30:04.571Z,24.40
2019-06-26T21:32:33.250Z,24.50
2019-06-26T21:35:02.202Z,24.50
2019-06-26T21:37:30.868Z,24.50
2019-06-26T21:40:00.439Z,24.50
2019-06-26T21:42:29.116Z,24.50
2019-06-26T21:44:57.874Z,24.40
2019-06-26T21:47:26.998Z,24.50
2019-06-26T21:49:56.597Z,24.50
2019-06-26T21:52:25.292Z,24.40
2019-06-26T21:54:54.485Z,24.50
2019-06-26T21:57:41.179Z,24.40
2019-06-26T22:00:30.516Z,24.50
2019-06-26T22:03:18.103Z,24.40
2019-06-26T22:05:48.407Z,24.40
2019-06-26T22:08:35.509Z,24.50
2019-06-26T22:11:05.893Z,24.40
2019-06-26T22:13:34.678Z,24.40
2019-06-26T22:16:03.636Z,24.40
2019-06-26T22:18:32.968Z,24.40
2019-06-26T22:21:01.834Z,24.40
2019-06-26T22:23:30.714Z,24.30
2019-06-26T22:26:00.497Z,24.40
2019-06-26T22:28:29.344Z,24.40
2019-06-26T22:30:58.067Z,24.40
2019-06-26T22:33:26.762Z,24.30
2019-06-26T22:35:56.625Z,24.40
2019-06-26T22:38:25.477Z,24.40
2019-06-26T22:40:54.780Z,24.40
2019-06-26T22:43:23.579Z,24.30
2019-06-26T22:45:52.678Z,24.30
2019-06-26T22:48:21.525Z,24.30
2019-06-26T22:50:50.578Z,24.30
2019-06-26T22:53:19.260Z,24.30
2019-06-26T22:55:47.949Z,24.30
2019-06-26T22:58:16.647Z,24.30
2019-06-26T23:00:47.699Z,24.30
2019-06-26T23:03:15.714Z,24.30
2019-06-26T23:05:44.410Z,24.30
2019-06-26T23:08:13.085Z,24.30
2019-06-26T23:10:41.773Z,24.30
2019-06-26T23:13:11.590Z,24.30
2019-06-26T23:15:40.719Z,24.30
2019-06-26T23:18:10.533Z,24.30
2019-06-26T23:20:39.247Z,24.30
2019-06-26T23:23:07.985Z,24.30
2019-06-26T23:25:36.693Z,24.30
2019-06-26T23:28:05.378Z,24.20
2019-06-26T23:30:34.092Z,24.30
2019-06-26T23:33:03.142Z,24.30
2019-06-26T23:35:31.857Z,24.30
2019-06-26T23:38:00.616Z,24.20
2019-06-26T23:40:29.426Z,24.20
2019-06-26T23:42:58.107Z,24.20
2019-06-26T23:45:26.889Z,24.20
2019-06-26T23:47:55.566Z,24.20
2019-06-26T23:50:24.274Z,24.20
2019-06-26T23:52:53.346Z,24.20
2019-06-26T23:55:22.055Z,24.20
2019-06-26T23:57:58.860Z,24.20
